createdAt,value
2017-07-11T00:00:18.851Z,21.80
2017-07-11T00:02:45.751Z,21.90
2017-07-11T00:05:12.762Z,22.00
2017-07-11T00:07:39.724Z,22.20
2017-07-11T00:10:07.051Z,22.30
2017-07-11T00:12:33.973Z,22.30
2017-07-11T00:15:00.857Z,22.30
2017-07-11T00:17:27.813Z,22.20
2017-07-11T00:19:55.154Z,22.00
2017-07-11T00:22:22.149Z,22.00
2017-07-11T00:24:49.666Z,22.00
2017-07-11T00:27:16.615Z,21.80
2017-07-11T00:29:43.567Z,21.70
2017-07-11T00:32:10.918Z,21.70
2017-07-11T00:34:37.872Z,21.70
2017-07-11T00:37:05.232Z,21.40
2017-07-11T00:39:32.157Z,21.40
2017-07-11T00:41:59.051Z,21.30
2017-07-11T00:44:25.935Z,21.30
2017-07-11T00:46:52.863Z,21.30
2017-07-11T00:49:20.143Z,21.20
2017-07-11T00:51:47.058Z,21.20
2017-07-11T00:54:14.368Z,21.20
2017-07-11T00:56:41.247Z,21.20
2017-07-11T00:59:08.205Z,21.20
2017-07-11T01:01:38.727Z,21.00
2017-07-11T01:04:05.615Z,21.00
2017-07-11T01:06:32.537Z,20.80
2017-07-11T01:08:59.879Z,20.60
2017-07-11T01:11:27.162Z,20.60
2017-07-11T01:13:54.090Z,20.60
2017-07-11T01:16:21.435Z,20.70
2017-07-11T01:18:48.386Z,20.70
2017-07-11T01:21:15.302Z,20.70
2017-07-11T01:23:42.274Z,20.90
2017-07-11T01:26:09.217Z,21.00
2017-07-11T01:28:36.137Z,21.10
2017-07-11T01:31:03.357Z,20.90
2017-07-11T01:33:30.283Z,20.80
2017-07-11T01:35:57.563Z,20.80
2017-07-11T01:38:24.453Z,20.90
2017-07-11T01:40:51.382Z,21.00
2017-07-11T01:43:18.279Z,21.00
2017-07-11T01:45:45.159Z,21.10
2017-07-11T01:48:12.084Z,21.10
2017-07-11T01:50:39.005Z,21.10
2017-07-11T01:53:06.282Z,21.10
2017-07-11T01:55:33.214Z,21.10
2017-07-11T01:58:00.106Z,21.00
2017-07-11T02:00:26.994Z,21.00
2017-07-11T02:02:54.317Z,20.90
2017-07-11T02:05:21.203Z,20.90
2017-07-11T02:07:48.094Z,20.80
2017-07-11T02:10:15.588Z,20.80
2017-07-11T02:12:42.870Z,20.80
2017-07-11T02:15:09.758Z,20.80
2017-07-11T02:17:36.738Z,20.70
2017-07-11T02:20:04.103Z,20.80
2017-07-11T02:22:31.378Z,21.00
2017-07-11T02:24:58.294Z,21.00
2017-07-11T02:27:25.574Z,21.20
2017-07-11T02:29:52.766Z,21.20
2017-07-11T02:32:19.743Z,21.20
2017-07-11T02:34:47.043Z,21.30
2017-07-11T02:37:14.047Z,21.40
2017-07-11T02:39:46.822Z,21.30
2017-07-11T02:42:13.754Z,21.30
2017-07-11T02:44:40.719Z,21.20
2017-07-11T02:47:07.676Z,21.30
2017-07-11T02:49:35.018Z,21.30
2017-07-11T02:52:01.910Z,21.30
2017-07-11T02:54:28.911Z,21.30
2017-07-11T02:56:55.799Z,21.40
2017-07-11T02:59:22.677Z,21.60
2017-07-11T03:01:49.594Z,21.70
2017-07-11T03:04:16.499Z,21.70
2017-07-11T03:06:43.949Z,21.70
2017-07-11T03:09:10.840Z,21.70
2017-07-11T03:11:37.746Z,21.70
2017-07-11T03:14:04.667Z,21.70
2017-07-11T03:16:31.884Z,21.60
2017-07-11T03:18:58.797Z,21.50
2017-07-11T03:21:26.089Z,21.30
2017-07-11T03:23:52.995Z,21.30
2017-07-11T03:26:20.348Z,21.30
2017-07-11T03:28:47.234Z,21.40
2017-07-11T03:31:14.117Z,21.40
2017-07-11T03:33:41.031Z,21.40
2017-07-11T03:36:07.947Z,21.40
2017-07-11T03:38:35.802Z,21.40
2017-07-11T03:41:02.699Z,21.40
2017-07-11T03:43:29.590Z,21.40
2017-07-11T03:45:57.399Z,21.30
2017-07-11T03:48:24.283Z,21.30
2017-07-11T03:50:51.167Z,21.30
2017-07-11T03:53:18.482Z,21.30
2017-07-11T03:55:45.362Z,21.30
2017-07-11T03:58:12.243Z,21.40
2017-07-11T04:00:39.682Z,21.30
2017-07-11T04:03:06.560Z,21.30
2017-07-11T04:05:33.449Z,21.30
2017-07-11T04:08:00.772Z,21.30
2017-07-11T04:10:27.661Z,21.30
2017-07-11T04:12:54.942Z,21.30
2017-07-11T04:15:21.866Z,21.30
2017-07-11T04:17:48.789Z,21.30
2017-07-11T04:20:15.679Z,21.40
2017-07-11T04:22:42.681Z,21.30
2017-07-11T04:25:09.634Z,21.30
2017-07-11T04:27:36.987Z,21.00
2017-07-11T04:30:04.311Z,20.90
2017-07-11T04:32:31.191Z,20.80
2017-07-11T04:34:58.510Z,20.90
2017-07-11T04:37:25.398Z,20.90
2017-07-11T04:39:52.739Z,20.70
2017-07-11T04:42:19.621Z,20.70
2017-07-11T04:44:46.529Z,20.70
2017-07-11T04:47:13.450Z,20.70
2017-07-11T04:49:40.339Z,20.70
2017-07-11T04:52:07.230Z,20.80
2017-07-11T04:54:34.214Z,20.70
2017-07-11T04:57:01.504Z,20.80
2017-07-11T04:59:28.413Z,20.80
2017-07-11T05:01:55.362Z,20.80
2017-07-11T05:04:22.284Z,20.80
2017-07-11T05:06:49.260Z,20.70
2017-07-11T05:09:16.171Z,20.70
2017-07-11T05:11:43.222Z,20.70
2017-07-11T05:14:10.146Z,20.60
2017-07-11T05:16:37.092Z,20.50
2017-07-11T05:19:03.978Z,20.50
2017-07-11T05:21:30.881Z,20.60
2017-07-11T05:23:57.797Z,20.60
2017-07-11T05:26:25.076Z,20.30
2017-07-11T05:28:51.958Z,20.30
2017-07-11T05:31:18.874Z,20.20
2017-07-11T05:33:45.800Z,20.10
2017-07-11T05:36:12.682Z,20.10
2017-07-11T05:38:39.572Z,20.10
2017-07-11T05:41:06.923Z,19.70
2017-07-11T05:43:34.274Z,19.60
2017-07-11T05:46:01.604Z,19.60
2017-07-11T05:48:28.537Z,19.60
2017-07-11T05:50:55.542Z,19.60
2017-07-11T05:53:22.819Z,19.50
2017-07-11T05:55:49.862Z,19.50
2017-07-11T05:58:16.770Z,19.50
2017-07-11T06:00:44.045Z,19.80
2017-07-11T06:03:10.986Z,19.80
2017-07-11T06:05:38.266Z,19.80
2017-07-11T06:08:05.157Z,19.80
2017-07-11T06:10:32.069Z,19.90
2017-07-11T06:12:58.965Z,20.00
2017-07-11T06:15:26.245Z,20.30
2017-07-11T06:17:53.182Z,20.30
2017-07-11T06:20:20.110Z,20.30
2017-07-11T06:22:47.643Z,20.70
2017-07-11T06:25:14.540Z,20.70
2017-07-11T06:27:41.462Z,20.80
2017-07-11T06:30:08.749Z,20.40
2017-07-11T06:32:35.691Z,20.40
2017-07-11T06:35:02.574Z,20.20
2017-07-11T06:37:29.459Z,20.00
2017-07-11T06:39:56.843Z,20.00
2017-07-11T06:42:23.730Z,20.00
2017-07-11T06:44:50.621Z,20.10
2017-07-11T06:47:17.538Z,20.10
2017-07-11T06:49:44.459Z,20.40
2017-07-11T06:52:11.343Z,20.70
2017-07-11T06:54:38.623Z,20.20
2017-07-11T06:57:05.550Z,20.20
2017-07-11T06:59:32.842Z,20.50
2017-07-11T07:02:01.802Z,20.50
2017-07-11T07:04:28.685Z,20.60
2017-07-11T07:06:55.571Z,20.60
2017-07-11T07:09:22.898Z,21.00
2017-07-11T07:11:50.064Z,20.90
2017-07-11T07:14:16.945Z,21.20
2017-07-11T07:16:44.284Z,21.00
2017-07-11T07:19:11.197Z,21.00
2017-07-11T07:21:38.083Z,21.00
2017-07-11T07:24:05.002Z,21.00
2017-07-11T07:26:31.903Z,21.20
2017-07-11T07:28:58.892Z,21.40
2017-07-11T07:31:25.802Z,21.60
2017-07-11T07:33:53.082Z,21.70
2017-07-11T07:36:20.106Z,21.70
2017-07-11T07:38:47.455Z,21.20
2017-07-11T07:41:14.345Z,21.20
2017-07-11T07:43:41.270Z,21.20
2017-07-11T07:46:08.149Z,21.10
2017-07-11T07:48:35.143Z,21.40
2017-07-11T07:51:02.501Z,21.30
2017-07-11T07:53:29.850Z,21.50
2017-07-11T07:55:56.798Z,21.50
2017-07-11T07:58:24.154Z,22.10
2017-07-11T08:00:51.038Z,22.10
2017-07-11T08:03:17.923Z,22.60
2017-07-11T08:05:44.894Z,22.80
2017-07-11T08:08:12.176Z,22.80
2017-07-11T08:10:39.076Z,22.80
2017-07-11T08:13:06.038Z,23.00
2017-07-11T08:15:32.923Z,23.10
2017-07-11T08:17:59.802Z,23.00
2017-07-11T08:20:26.774Z,23.40
2017-07-11T08:22:54.050Z,23.70
2017-07-11T08:25:21.406Z,23.70
2017-07-11T08:27:48.741Z,23.90
2017-07-11T08:30:16.193Z,24.00
2017-07-11T08:32:43.143Z,24.00
2017-07-11T08:35:10.399Z,23.70
2017-07-11T08:37:37.280Z,22.70
2017-07-11T08:40:04.251Z,22.00
2017-07-11T08:42:31.171Z,21.80
2017-07-11T08:44:58.138Z,21.80
2017-07-11T08:47:25.103Z,22.00
2017-07-11T08:49:52.451Z,23.00
2017-07-11T08:52:19.396Z,23.00
2017-07-11T08:54:46.338Z,23.40
2017-07-11T08:57:13.286Z,23.90
2017-07-11T08:59:40.162Z,24.10
2017-07-11T09:02:07.082Z,24.30
2017-07-11T09:04:34.436Z,24.20
2017-07-11T09:07:01.322Z,24.20
2017-07-11T09:09:28.222Z,24.20
2017-07-11T09:11:55.179Z,24.20
2017-07-11T09:14:22.456Z,24.00
2017-07-11T09:16:49.477Z,24.00
2017-07-11T09:19:16.830Z,23.30
2017-07-11T09:21:44.206Z,23.20
2017-07-11T09:24:11.526Z,23.40
2017-07-11T09:26:38.486Z,23.50
2017-07-11T09:29:05.838Z,24.20
2017-07-11T09:31:32.790Z,24.20
2017-07-11T09:34:00.152Z,23.40
2017-07-11T09:36:27.511Z,23.00
2017-07-11T09:38:54.443Z,23.00
2017-07-11T09:41:21.323Z,22.70
2017-07-11T09:43:48.217Z,22.70
2017-07-11T09:46:15.205Z,22.80
2017-07-11T09:48:42.494Z,22.40
2017-07-11T09:51:09.409Z,22.40
2017-07-11T09:53:36.299Z,22.50
2017-07-11T09:56:03.269Z,23.00
2017-07-11T09:58:30.224Z,23.50
2017-07-11T10:00:57.175Z,23.70
2017-07-11T10:03:24.535Z,23.30
2017-07-11T10:05:51.823Z,23.20
2017-07-11T10:08:18.769Z,23.20
2017-07-11T10:10:45.779Z,23.40
2017-07-11T10:13:13.068Z,23.90
2017-07-11T10:15:39.958Z,23.90
2017-07-11T10:18:06.874Z,24.40
2017-07-11T10:20:33.870Z,24.70
2017-07-11T10:23:00.750Z,24.90
2017-07-11T10:25:27.762Z,25.00
2017-07-11T10:27:54.703Z,25.00
2017-07-11T10:30:21.694Z,25.20
2017-07-11T10:32:48.594Z,24.90
2017-07-11T10:35:15.550Z,24.80
2017-07-11T10:37:42.899Z,25.20
2017-07-11T10:40:10.299Z,25.20
2017-07-11T10:42:37.236Z,25.40
2017-07-11T10:45:04.246Z,25.50
2017-07-11T10:47:31.219Z,25.50
2017-07-11T10:49:58.603Z,25.60
2017-07-11T10:52:25.606Z,25.70
2017-07-11T10:54:52.484Z,25.80
2017-07-11T10:57:19.398Z,25.80
2017-07-11T10:59:46.342Z,25.90
2017-07-11T11:02:13.290Z,26.00
2017-07-11T11:04:40.179Z,26.10
2017-07-11T11:07:07.599Z,26.20
2017-07-11T11:09:34.897Z,26.10
2017-07-11T11:12:01.834Z,26.20
2017-07-11T11:14:28.836Z,25.90
2017-07-11T11:16:55.790Z,25.80
2017-07-11T11:19:23.139Z,25.10
2017-07-11T11:21:50.091Z,25.10
2017-07-11T11:24:17.034Z,24.70
2017-07-11T11:26:43.986Z,24.60
2017-07-11T11:29:11.377Z,24.80
2017-07-11T11:31:38.262Z,24.80
2017-07-11T11:34:05.146Z,25.00
2017-07-11T11:36:32.587Z,25.80
2017-07-11T11:38:59.586Z,25.80
2017-07-11T11:41:26.826Z,25.20
2017-07-11T11:43:53.741Z,25.20
2017-07-11T11:46:21.022Z,25.00
2017-07-11T11:48:48.289Z,25.00
2017-07-11T11:51:15.598Z,25.30
2017-07-11T11:53:42.574Z,25.40
2017-07-11T11:56:09.937Z,25.70
2017-07-11T11:58:36.887Z,25.70
2017-07-11T12:01:03.825Z,25.40
2017-07-11T12:03:30.773Z,25.50
2017-07-11T12:05:58.236Z,25.80
2017-07-11T12:08:25.595Z,25.50
2017-07-11T12:10:52.529Z,25.50
2017-07-11T12:13:19.409Z,25.70
2017-07-11T12:15:46.322Z,26.10
2017-07-11T12:18:13.251Z,26.30
2017-07-11T12:20:40.222Z,25.90
2017-07-11T12:23:07.109Z,25.70
2017-07-11T12:25:34.013Z,25.70
2017-07-11T12:28:01.306Z,25.70
2017-07-11T12:30:28.311Z,25.70
2017-07-11T12:32:55.269Z,25.60
2017-07-11T12:35:22.630Z,26.40
2017-07-11T12:37:49.947Z,26.80
2017-07-11T12:40:16.838Z,26.80
2017-07-11T12:42:43.816Z,27.20
2017-07-11T12:45:11.193Z,27.40
2017-07-11T12:47:38.082Z,27.40
2017-07-11T12:50:05.059Z,26.70
2017-07-11T12:52:32.011Z,26.20
2017-07-11T12:54:58.954Z,26.20
2017-07-11T12:57:25.902Z,26.50
2017-07-11T12:59:52.850Z,26.90
2017-07-11T13:02:19.750Z,27.30
2017-07-11T13:04:46.746Z,27.60
2017-07-11T13:07:14.138Z,28.00
2017-07-11T13:09:41.027Z,28.00
2017-07-11T13:12:07.987Z,27.40
2017-07-11T13:14:34.875Z,27.20
2017-07-11T13:17:01.759Z,27.50
2017-07-11T13:19:28.724Z,27.70
2017-07-11T13:21:55.671Z,28.00
2017-07-11T13:24:22.618Z,27.90
2017-07-11T13:26:49.570Z,28.00
2017-07-11T13:29:16.926Z,28.50
2017-07-11T13:31:43.821Z,28.60
2017-07-11T13:34:10.713Z,28.70
2017-07-11T13:36:37.624Z,28.60
2017-07-11T13:39:04.507Z,27.60
2017-07-11T13:41:31.419Z,26.70
2017-07-11T13:43:58.439Z,26.20
2017-07-11T13:46:25.322Z,26.40
2017-07-11T13:48:52.205Z,26.70
2017-07-11T13:51:19.558Z,25.90
2017-07-11T13:53:46.899Z,25.70
2017-07-11T13:56:13.841Z,25.70
2017-07-11T13:58:40.795Z,25.70
2017-07-11T14:01:07.743Z,25.30
2017-07-11T14:03:35.022Z,25.10
2017-07-11T14:06:01.938Z,25.10
2017-07-11T14:08:28.884Z,24.70
2017-07-11T14:10:55.873Z,24.10
2017-07-11T14:13:22.786Z,23.90
2017-07-11T14:15:50.137Z,23.20
2017-07-11T14:18:17.503Z,22.70
2017-07-11T14:20:44.853Z,22.30
2017-07-11T14:23:12.130Z,22.30
2017-07-11T14:25:39.143Z,22.30
2017-07-11T14:28:06.025Z,22.20
2017-07-11T14:30:32.946Z,21.90
2017-07-11T14:33:00.221Z,21.80
2017-07-11T14:35:27.122Z,21.80
2017-07-11T14:37:54.094Z,22.10
2017-07-11T14:40:21.441Z,22.10
2017-07-11T14:42:48.802Z,21.90
2017-07-11T14:45:16.158Z,21.80
2017-07-11T14:47:43.438Z,21.60
2017-07-11T14:50:10.446Z,21.60
2017-07-11T14:52:37.326Z,22.00
2017-07-11T14:55:04.251Z,22.40
2017-07-11T14:57:31.603Z,23.20
2017-07-11T14:59:58.554Z,23.20
2017-07-11T15:02:25.902Z,22.80
2017-07-11T15:04:52.850Z,22.70
2017-07-11T15:07:23.161Z,22.90
2017-07-11T15:09:50.100Z,23.50
2017-07-11T15:12:17.063Z,24.00
2017-07-11T15:14:44.057Z,24.40
2017-07-11T15:17:10.958Z,24.70
2017-07-11T15:19:37.842Z,24.30
2017-07-11T15:22:04.865Z,23.80
2017-07-11T15:24:32.148Z,23.80
2017-07-11T15:26:59.062Z,23.80
2017-07-11T15:29:28.974Z,23.50
2017-07-11T15:31:56.430Z,23.40
2017-07-11T15:34:23.710Z,23.70
2017-07-11T15:36:50.636Z,23.70
2017-07-11T15:39:17.962Z,24.40
2017-07-11T15:41:44.837Z,24.40
2017-07-11T15:44:12.119Z,24.60
2017-07-11T15:46:39.030Z,24.60
2017-07-11T15:49:05.919Z,24.70
2017-07-11T15:51:32.923Z,25.00
2017-07-11T15:53:59.869Z,25.10
2017-07-11T15:56:26.782Z,25.20
2017-07-11T15:58:53.763Z,25.20
2017-07-11T16:01:20.669Z,25.30
2017-07-11T16:03:47.655Z,25.40
2017-07-11T16:06:14.539Z,25.50
2017-07-11T16:08:41.489Z,25.50
2017-07-11T16:11:08.433Z,25.60
2017-07-11T16:13:35.335Z,25.60
2017-07-11T16:16:02.298Z,25.60
2017-07-11T16:18:29.582Z,25.30
2017-07-11T16:20:56.465Z,25.30
2017-07-11T16:23:23.385Z,24.90
2017-07-11T16:25:50.417Z,24.90
2017-07-11T16:28:17.299Z,25.10
2017-07-11T16:30:44.275Z,25.30
2017-07-11T16:33:11.551Z,25.50
2017-07-11T16:35:38.466Z,25.50
2017-07-11T16:38:05.379Z,25.50
2017-07-11T16:40:32.363Z,25.30
2017-07-11T16:42:59.311Z,25.00
2017-07-11T16:45:26.200Z,24.90
2017-07-11T16:47:53.173Z,24.60
2017-07-11T16:50:20.066Z,24.30
2017-07-11T16:52:47.445Z,23.70
2017-07-11T16:55:14.358Z,23.70
2017-07-11T16:57:41.639Z,23.70
2017-07-11T17:00:08.529Z,23.70
2017-07-11T17:02:35.448Z,23.90
2017-07-11T17:05:02.333Z,24.00
2017-07-11T17:07:29.328Z,23.50
2017-07-11T17:09:56.204Z,23.20
2017-07-11T17:12:23.139Z,23.10
2017-07-11T17:14:50.070Z,23.30
2017-07-11T17:17:16.961Z,23.40
2017-07-11T17:19:43.919Z,23.10
2017-07-11T17:22:11.197Z,23.10
2017-07-11T17:24:38.115Z,23.10
2017-07-11T17:27:05.575Z,23.00
2017-07-11T17:29:32.518Z,22.80
2017-07-11T17:31:59.470Z,23.00
2017-07-11T17:34:26.826Z,23.80
2017-07-11T17:36:54.107Z,23.90
2017-07-11T17:39:21.018Z,23.90
2017-07-11T17:41:47.942Z,24.20
2017-07-11T17:44:14.918Z,24.60
2017-07-11T17:46:42.258Z,25.50
2017-07-11T17:49:09.595Z,25.50
2017-07-11T17:51:36.507Z,25.60
2017-07-11T17:54:03.414Z,25.60
2017-07-11T17:56:30.334Z,25.40
2017-07-11T17:58:57.218Z,25.10
2017-07-11T18:01:24.566Z,24.70
2017-07-11T18:03:51.514Z,24.80
2017-07-11T18:06:18.866Z,24.40
2017-07-11T18:08:45.865Z,24.40
2017-07-11T18:11:12.858Z,24.10
2017-07-11T18:13:39.737Z,23.90
2017-07-11T18:16:06.626Z,23.70
2017-07-11T18:18:33.598Z,23.70
2017-07-11T18:21:00.559Z,23.40
2017-07-11T18:23:27.908Z,23.30
2017-07-11T18:25:55.253Z,23.20
2017-07-11T18:28:22.210Z,23.20
2017-07-11T18:30:49.564Z,23.20
2017-07-11T18:33:16.958Z,23.20
2017-07-11T18:35:43.867Z,23.20
2017-07-11T18:38:11.182Z,23.00
2017-07-11T18:40:38.171Z,23.00
2017-07-11T18:43:05.477Z,23.00
2017-07-11T18:45:32.471Z,23.00
2017-07-11T18:47:59.423Z,23.00
2017-07-11T18:50:26.874Z,23.00
2017-07-11T18:52:53.818Z,22.90
2017-07-11T18:55:20.770Z,22.90
2017-07-11T18:57:48.123Z,22.30
2017-07-11T19:00:15.076Z,22.30
2017-07-11T19:02:42.428Z,22.50
2017-07-11T19:05:09.756Z,22.70
2017-07-11T19:07:36.730Z,22.70
2017-07-11T19:10:04.087Z,22.90
2017-07-11T19:12:31.484Z,22.80
2017-07-11T19:14:58.386Z,22.80
2017-07-11T19:17:25.315Z,22.50
2017-07-11T19:19:52.273Z,22.60
2017-07-11T19:22:19.162Z,22.60
2017-07-11T19:24:46.087Z,22.80
2017-07-11T19:27:13.426Z,22.80
2017-07-11T19:29:40.370Z,22.80
2017-07-11T19:32:07.317Z,22.70
2017-07-11T19:34:34.198Z,22.60
2017-07-11T19:37:01.110Z,22.60
2017-07-11T19:39:28.466Z,22.70
2017-07-11T19:41:55.758Z,22.70
2017-07-11T19:44:22.757Z,22.70
2017-07-11T19:46:49.724Z,22.80
2017-07-11T19:49:17.046Z,22.80
2017-07-11T19:51:43.930Z,22.80
2017-07-11T19:54:11.213Z,22.60
2017-07-11T19:56:38.231Z,22.60
2017-07-11T19:59:05.573Z,22.40
2017-07-11T20:01:32.948Z,22.40
2017-07-11T20:04:00.294Z,22.40
2017-07-11T20:06:27.578Z,22.30
2017-07-11T20:08:54.466Z,22.30
2017-07-11T20:11:21.388Z,22.30
2017-07-11T20:13:48.273Z,22.20
2017-07-11T20:16:15.222Z,22.20
2017-07-11T20:18:42.155Z,22.20
2017-07-11T20:21:09.039Z,22.20
2017-07-11T20:23:35.958Z,22.20
2017-07-11T20:26:02.905Z,22.20
2017-07-11T20:28:29.854Z,22.20
2017-07-11T20:30:56.803Z,22.10
2017-07-11T20:33:24.333Z,22.20
2017-07-11T20:35:51.306Z,22.20
2017-07-11T20:38:18.255Z,22.20
2017-07-11T20:40:45.150Z,22.20
2017-07-11T20:43:12.142Z,22.10
2017-07-11T20:45:39.022Z,22.10
2017-07-11T20:48:05.909Z,21.90
2017-07-11T20:50:32.895Z,21.90
2017-07-11T20:53:00.246Z,22.00
2017-07-11T20:55:27.610Z,21.90
2017-07-11T20:57:54.951Z,21.70
2017-07-11T21:00:21.840Z,21.70
2017-07-11T21:02:48.757Z,21.70
2017-07-11T21:05:16.047Z,21.70
2017-07-11T21:07:42.933Z,21.70
2017-07-11T21:10:09.886Z,21.60
2017-07-11T21:12:36.840Z,21.60
2017-07-11T21:15:04.109Z,21.50
2017-07-11T21:17:31.036Z,21.50
2017-07-11T21:19:58.319Z,21.40
2017-07-11T21:22:25.201Z,21.40
2017-07-11T21:24:52.174Z,21.40
2017-07-11T21:27:19.135Z,21.50
2017-07-11T21:29:46.419Z,21.40
2017-07-11T21:32:13.360Z,21.40
2017-07-11T21:34:40.242Z,21.40
2017-07-11T21:37:07.214Z,21.30
2017-07-11T21:39:34.155Z,21.30
2017-07-11T21:42:01.139Z,21.30
2017-07-11T21:44:28.061Z,21.30
2017-07-11T21:46:54.979Z,21.30
2017-07-11T21:49:21.863Z,21.30
2017-07-11T21:51:48.834Z,21.20
2017-07-11T21:54:15.784Z,21.10
2017-07-11T21:56:43.548Z,21.20
2017-07-11T21:59:10.494Z,21.20
2017-07-11T22:01:37.439Z,21.10
2017-07-11T22:04:04.386Z,21.10
2017-07-11T22:06:31.634Z,21.10
2017-07-11T22:08:58.582Z,21.00
2017-07-11T22:11:25.534Z,21.10
2017-07-11T22:13:52.479Z,21.00
2017-07-11T22:16:19.465Z,21.00
2017-07-11T22:18:46.384Z,20.90
2017-07-11T22:21:13.270Z,20.90
2017-07-11T22:23:40.150Z,20.70
2017-07-11T22:26:07.502Z,20.80
2017-07-11T22:28:34.452Z,20.80
2017-07-11T22:31:01.336Z,20.70
2017-07-11T22:33:28.240Z,20.60
2017-07-11T22:35:55.181Z,20.60
2017-07-11T22:38:22.134Z,20.50
2017-07-11T22:40:49.030Z,20.30
2017-07-11T22:43:15.995Z,20.10
2017-07-11T22:45:42.880Z,20.10
2017-07-11T22:48:09.773Z,20.10
2017-07-11T22:50:36.734Z,20.20
2017-07-11T22:53:03.686Z,20.20
2017-07-11T22:55:30.630Z,20.40
2017-07-11T22:57:57.575Z,20.40
2017-07-11T23:00:24.455Z,20.50
2017-07-11T23:02:51.370Z,20.60
2017-07-11T23:05:18.678Z,20.60
2017-07-11T23:07:45.578Z,20.60
2017-07-11T23:10:12.543Z,20.60
2017-07-11T23:12:39.594Z,20.60
2017-07-11T23:15:06.484Z,20.60
2017-07-11T23:17:33.481Z,20.60
2017-07-11T23:20:00.430Z,20.60
2017-07-11T23:22:27.384Z,20.60
2017-07-11T23:24:54.730Z,20.60
2017-07-11T23:27:21.686Z,20.60
2017-07-11T23:29:49.035Z,20.60
2017-07-11T23:32:15.982Z,20.60
2017-07-11T23:34:42.978Z,20.60
2017-07-11T23:37:10.033Z,20.60
2017-07-11T23:39:37.434Z,20.70
2017-07-11T23:42:04.382Z,20.70
2017-07-11T23:44:31.330Z,20.60
2017-07-11T23:46:58.278Z,20.70
2017-07-11T23:49:25.643Z,20.70
2017-07-11T23:51:52.986Z,20.70
2017-07-11T23:54:19.934Z,20.70
2017-07-11T23:56:46.886Z,20.80
2017-07-11T23:59:14.161Z,20.70
